sensor_id;sensor_type;location;lat;lon;timestamp;P1;durP1;ratioP1;P2;durP2;ratioP2
10904;SDS011;5505;51.450;9.254;2024-02-15T00:00:34;0.97;;;0.53;;
10904;SDS011;5505;51.450;9.254;2024-02-15T00:03:22;0.50;;;0.50;;
10904;SDS011;5505;51.450;9.254;2024-02-15T00:06:09;0.70;;;0.50;;
10904;SDS011;5505;51.450;9.254;2024-02-15T00:08:55;0.60;;;0.60;;
10904;SDS011;5505;51.450;9.254;2024-02-15T00:11:43;1.07;;;0.60;;
10904;SDS011;5505;51.450;9.254;2024-02-15T00:14:30;1.33;;;0.50;;
10904;SDS011;5505;51.450;9.254;2024-02-15T00:17:17;0.57;;;0.57;;
10904;SDS011;5505;51.450;9.254;2024-02-15T00:20:05;0.50;;;0.50;;
10904;SDS011;5505;51.450;9.254;2024-02-15T00:22:54;0.50;;;0.43;;
10904;SDS011;5505;51.450;9.254;2024-02-15T00:25:41;1.00;;;0.60;;
10904;SDS011;5505;51.450;9.254;2024-02-15T00:28:31;0.60;;;0.60;;
10904;SDS011;5505;51.450;9.254;2024-02-15T00:31:18;1.33;;;0.60;;
10904;SDS011;5505;51.450;9.254;2024-02-15T00:34:05;0.50;;;0.50;;
10904;SDS011;5505;51.450;9.254;2024-02-15T00:36:52;1.00;;;0.80;;
10904;SDS011;5505;51.450;9.254;2024-02-15T00:39:39;0.80;;;0.80;;
10904;SDS011;5505;51.450;9.254;2024-02-15T00:42:26;0.73;;;0.70;;
10904;SDS011;5505;51.450;9.254;2024-02-15T00:45:14;0.70;;;0.70;;
10904;SDS011;5505;51.450;9.254;2024-02-15T00:48:01;1.33;;;0.60;;
10904;SDS011;5505;51.450;9.254;2024-02-15T00:50:48;0.70;;;0.70;;
10904;SDS011;5505;51.450;9.254;2024-02-15T00:53:35;0.77;;;0.73;;
10904;SDS011;5505;51.450;9.254;2024-02-15T00:56:22;0.80;;;0.80;;
10904;SDS011;5505;51.450;9.254;2024-02-15T00:59:09;0.80;;;0.80;;
10904;SDS011;5505;51.450;9.254;2024-02-15T01:01:57;0.70;;;0.70;;
10904;SDS011;5505;51.450;9.254;2024-02-15T01:04:44;2.20;;;0.97;;
10904;SDS011;5505;51.450;9.254;2024-02-15T01:07:31;0.60;;;0.60;;
10904;SDS011;5505;51.450;9.254;2024-02-15T01:10:18;1.83;;;0.80;;
10904;SDS011;5505;51.450;9.254;2024-02-15T01:13:05;0.80;;;0.80;;
10904;SDS011;5505;51.450;9.254;2024-02-15T01:15:53;2.40;;;1.00;;
10904;SDS011;5505;51.450;9.254;2024-02-15T01:18:42;0.80;;;0.80;;
10904;SDS011;5505;51.450;9.254;2024-02-15T01:21:29;0.80;;;0.80;;
10904;SDS011;5505;51.450;9.254;2024-02-15T01:24:18;0.70;;;0.70;;
10904;SDS011;5505;51.450;9.254;2024-02-15T01:27:05;0.70;;;0.70;;
10904;SDS011;5505;51.450;9.254;2024-02-15T01:29:52;1.00;;;0.80;;
10904;SDS011;5505;51.450;9.254;2024-02-15T01:32:40;0.70;;;0.60;;
10904;SDS011;5505;51.450;9.254;2024-02-15T01:35:28;0.60;;;0.60;;
10904;SDS011;5505;51.450;9.254;2024-02-15T01:38:15;0.80;;;0.80;;
10904;SDS011;5505;51.450;9.254;2024-02-15T01:41:02;0.50;;;0.50;;
10904;SDS011;5505;51.450;9.254;2024-02-15T01:43:49;0.73;;;0.53;;
10904;SDS011;5505;51.450;9.254;2024-02-15T01:46:36;1.47;;;0.50;;
10904;SDS011;5505;51.450;9.254;2024-02-15T01:49:23;0.70;;;0.70;;
10904;SDS011;5505;51.450;9.254;2024-02-15T01:52:12;0.80;;;0.80;;
10904;SDS011;5505;51.450;9.254;2024-02-15T01:54:59;2.53;;;0.80;;
10904;SDS011;5505;51.450;9.254;2024-02-15T01:57:53;0.93;;;0.50;;
10904;SDS011;5505;51.450;9.254;2024-02-15T02:00:40;0.60;;;0.60;;
10904;SDS011;5505;51.450;9.254;2024-02-15T02:03:27;1.40;;;0.70;;
10904;SDS011;5505;51.450;9.254;2024-02-15T02:06:15;1.60;;;0.70;;
10904;SDS011;5505;51.450;9.254;2024-02-15T02:09:03;0.60;;;0.60;;
10904;SDS011;5505;51.450;9.254;2024-02-15T02:11:50;0.70;;;0.70;;
10904;SDS011;5505;51.450;9.254;2024-02-15T02:14:37;1.37;;;1.23;;
10904;SDS011;5505;51.450;9.254;2024-02-15T02:17:24;0.80;;;0.70;;
10904;SDS011;5505;51.450;9.254;2024-02-15T02:20:11;1.80;;;0.80;;
10904;SDS011;5505;51.450;9.254;2024-02-15T02:23:00;0.73;;;0.73;;
10904;SDS011;5505;51.450;9.254;2024-02-15T02:25:53;1.20;;;0.70;;
10904;SDS011;5505;51.450;9.254;2024-02-15T02:28:41;1.00;;;0.90;;
10904;SDS011;5505;51.450;9.254;2024-02-15T02:31:28;1.00;;;0.90;;
10904;SDS011;5505;51.450;9.254;2024-02-15T02:34:15;0.93;;;0.77;;
10904;SDS011;5505;51.450;9.254;2024-02-15T02:37:01;0.50;;;0.50;;
10904;SDS011;5505;51.450;9.254;2024-02-15T02:39:50;1.00;;;0.60;;
10904;SDS011;5505;51.450;9.254;2024-02-15T02:42:47;0.80;;;0.80;;
10904;SDS011;5505;51.450;9.254;2024-02-15T02:45:35;0.83;;;0.80;;
10904;SDS011;5505;51.450;9.254;2024-02-15T02:48:22;0.70;;;0.70;;
10904;SDS011;5505;51.450;9.254;2024-02-15T02:51:09;0.60;;;0.60;;
10904;SDS011;5505;51.450;9.254;2024-02-15T02:53:57;0.60;;;0.60;;
10904;SDS011;5505;51.450;9.254;2024-02-15T02:56:44;2.07;;;1.00;;
10904;SDS011;5505;51.450;9.254;2024-02-15T02:59:32;0.50;;;0.50;;
10904;SDS011;5505;51.450;9.254;2024-02-15T03:02:19;0.77;;;0.70;;
10904;SDS011;5505;51.450;9.254;2024-02-15T03:05:07;0.60;;;0.60;;
10904;SDS011;5505;51.450;9.254;2024-02-15T03:07:56;1.10;;;0.70;;
10904;SDS011;5505;51.450;9.254;2024-02-15T03:10:43;0.90;;;0.90;;
10904;SDS011;5505;51.450;9.254;2024-02-15T03:13:30;0.70;;;0.70;;
10904;SDS011;5505;51.450;9.254;2024-02-15T03:16:21;0.73;;;0.73;;
10904;SDS011;5505;51.450;9.254;2024-02-15T03:19:09;0.70;;;0.70;;
10904;SDS011;5505;51.450;9.254;2024-02-15T03:21:57;0.83;;;0.50;;
10904;SDS011;5505;51.450;9.254;2024-02-15T03:24:43;1.00;;;0.73;;
10904;SDS011;5505;51.450;9.254;2024-02-15T03:27:30;1.27;;;0.70;;
10904;SDS011;5505;51.450;9.254;2024-02-15T03:30:17;0.90;;;0.90;;
10904;SDS011;5505;51.450;9.254;2024-02-15T03:33:06;3.40;;;1.10;;
10904;SDS011;5505;51.450;9.254;2024-02-15T03:35:53;1.67;;;0.80;;
10904;SDS011;5505;51.450;9.254;2024-02-15T03:38:45;2.60;;;0.87;;
10904;SDS011;5505;51.450;9.254;2024-02-15T03:41:32;0.90;;;0.90;;
10904;SDS011;5505;51.450;9.254;2024-02-15T03:44:19;0.67;;;0.67;;
10904;SDS011;5505;51.450;9.254;2024-02-15T03:47:06;0.83;;;0.70;;
10904;SDS011;5505;51.450;9.254;2024-02-15T03:49:54;1.37;;;0.70;;
10904;SDS011;5505;51.450;9.254;2024-02-15T03:52:42;1.30;;;0.83;;
10904;SDS011;5505;51.450;9.254;2024-02-15T03:55:29;0.80;;;0.80;;
10904;SDS011;5505;51.450;9.254;2024-02-15T03:58:16;1.80;;;0.80;;
10904;SDS011;5505;51.450;9.254;2024-02-15T04:01:03;1.00;;;1.00;;
10904;SDS011;5505;51.450;9.254;2024-02-15T04:03:51;1.17;;;0.73;;
10904;SDS011;5505;51.450;9.254;2024-02-15T04:06:40;1.03;;;1.03;;
10904;SDS011;5505;51.450;9.254;2024-02-15T04:09:27;0.73;;;0.73;;
10904;SDS011;5505;51.450;9.254;2024-02-15T04:12:15;2.37;;;1.00;;
10904;SDS011;5505;51.450;9.254;2024-02-15T04:15:02;1.10;;;1.00;;
10904;SDS011;5505;51.450;9.254;2024-02-15T04:17:52;0.60;;;0.60;;
10904;SDS011;5505;51.450;9.254;2024-02-15T04:20:41;1.13;;;0.63;;
10904;SDS011;5505;51.450;9.254;2024-02-15T04:23:32;2.07;;;0.97;;
10904;SDS011;5505;51.450;9.254;2024-02-15T04:26:19;0.77;;;0.77;;
10904;SDS011;5505;51.450;9.254;2024-02-15T04:29:06;1.83;;;1.17;;
10904;SDS011;5505;51.450;9.254;2024-02-15T04:31:54;1.70;;;1.00;;
10904;SDS011;5505;51.450;9.254;2024-02-15T04:34:41;0.90;;;0.90;;
10904;SDS011;5505;51.450;9.254;2024-02-15T04:37:29;2.20;;;1.10;;
10904;SDS011;5505;51.450;9.254;2024-02-15T04:40:18;2.80;;;1.10;;
10904;SDS011;5505;51.450;9.254;2024-02-15T04:43:05;1.03;;;0.90;;
10904;SDS011;5505;51.450;9.254;2024-02-15T04:45:53;1.47;;;1.10;;
10904;SDS011;5505;51.450;9.254;2024-02-15T04:48:40;1.10;;;1.00;;
10904;SDS011;5505;51.450;9.254;2024-02-15T04:51:27;1.30;;;1.20;;
10904;SDS011;5505;51.450;9.254;2024-02-15T04:54:14;2.00;;;1.30;;
10904;SDS011;5505;51.450;9.254;2024-02-15T04:57:04;1.20;;;1.10;;
10904;SDS011;5505;51.450;9.254;2024-02-15T04:59:53;1.30;;;1.20;;
10904;SDS011;5505;51.450;9.254;2024-02-15T05:02:40;1.97;;;1.10;;
10904;SDS011;5505;51.450;9.254;2024-02-15T05:05:28;1.97;;;1.40;;
10904;SDS011;5505;51.450;9.254;2024-02-15T05:08:15;1.70;;;1.30;;
10904;SDS011;5505;51.450;9.254;2024-02-15T05:11:02;2.17;;;1.33;;
10904;SDS011;5505;51.450;9.254;2024-02-15T05:13:51;2.03;;;1.47;;
10904;SDS011;5505;51.450;9.254;2024-02-15T05:16:38;1.30;;;1.20;;
10904;SDS011;5505;51.450;9.254;2024-02-15T05:19:27;2.17;;;1.17;;
10904;SDS011;5505;51.450;9.254;2024-02-15T05:22:15;1.40;;;1.13;;
10904;SDS011;5505;51.450;9.254;2024-02-15T05:25:03;1.70;;;1.40;;
10904;SDS011;5505;51.450;9.254;2024-02-15T05:27:53;1.40;;;1.30;;
10904;SDS011;5505;51.450;9.254;2024-02-15T05:30:41;1.63;;;1.40;;
10904;SDS011;5505;51.450;9.254;2024-02-15T05:33:29;2.20;;;1.40;;
10904;SDS011;5505;51.450;9.254;2024-02-15T05:36:18;1.87;;;1.57;;
10904;SDS011;5505;51.450;9.254;2024-02-15T05:39:06;2.87;;;2.17;;
10904;SDS011;5505;51.450;9.254;2024-02-15T05:41:56;3.00;;;2.70;;
10904;SDS011;5505;51.450;9.254;2024-02-15T05:44:45;2.30;;;2.10;;
10904;SDS011;5505;51.450;9.254;2024-02-15T05:47:33;3.07;;;2.83;;
10904;SDS011;5505;51.450;9.254;2024-02-15T05:50:20;2.40;;;1.70;;
10904;SDS011;5505;51.450;9.254;2024-02-15T05:53:08;2.83;;;2.03;;
10904;SDS011;5505;51.450;9.254;2024-02-15T05:55:55;2.33;;;2.07;;
10904;SDS011;5505;51.450;9.254;2024-02-15T05:58:43;1.97;;;1.87;;
10904;SDS011;5505;51.450;9.254;2024-02-15T06:01:29;2.43;;;2.10;;
10904;SDS011;5505;51.450;9.254;2024-02-15T06:04:18;2.20;;;2.00;;
10904;SDS011;5505;51.450;9.254;2024-02-15T06:07:04;3.97;;;2.00;;
10904;SDS011;5505;51.450;9.254;2024-02-15T06:09:54;2.77;;;2.57;;
10904;SDS011;5505;51.450;9.254;2024-02-15T06:12:41;3.00;;;2.70;;
10904;SDS011;5505;51.450;9.254;2024-02-15T06:15:28;3.60;;;3.30;;
10904;SDS011;5505;51.450;9.254;2024-02-15T06:18:15;5.30;;;3.70;;
10904;SDS011;5505;51.450;9.254;2024-02-15T06:21:07;4.10;;;3.70;;
10904;SDS011;5505;51.450;9.254;2024-02-15T06:23:55;4.53;;;3.93;;
10904;SDS011;5505;51.450;9.254;2024-02-15T06:26:41;2.37;;;2.13;;
10904;SDS011;5505;51.450;9.254;2024-02-15T06:29:29;4.37;;;3.10;;
10904;SDS011;5505;51.450;9.254;2024-02-15T06:32:34;5.73;;;3.10;;
10904;SDS011;5505;51.450;9.254;2024-02-15T06:35:38;3.80;;;2.87;;
10904;SDS011;5505;51.450;9.254;2024-02-15T06:38:43;2.30;;;1.60;;
10904;SDS011;5505;51.450;9.254;2024-02-15T06:41:48;4.07;;;2.30;;
10904;SDS011;5505;51.450;9.254;2024-02-15T06:44:34;1.93;;;1.73;;
10904;SDS011;5505;51.450;9.254;2024-02-15T06:47:21;1.93;;;1.70;;
10904;SDS011;5505;51.450;9.254;2024-02-15T06:50:08;3.57;;;3.10;;
10904;SDS011;5505;51.450;9.254;2024-02-15T06:52:56;3.57;;;2.40;;
10904;SDS011;5505;51.450;9.254;2024-02-15T06:55:44;3.87;;;2.50;;
10904;SDS011;5505;51.450;9.254;2024-02-15T06:58:33;5.77;;;4.57;;
10904;SDS011;5505;51.450;9.254;2024-02-15T07:01:19;3.33;;;2.10;;
10904;SDS011;5505;51.450;9.254;2024-02-15T07:04:07;4.77;;;3.27;;
10904;SDS011;5505;51.450;9.254;2024-02-15T07:06:55;3.07;;;2.40;;
10904;SDS011;5505;51.450;9.254;2024-02-15T07:09:42;3.20;;;1.80;;
10904;SDS011;5505;51.450;9.254;2024-02-15T07:12:31;4.73;;;2.23;;
10904;SDS011;5505;51.450;9.254;2024-02-15T07:15:17;5.13;;;2.47;;
10904;SDS011;5505;51.450;9.254;2024-02-15T07:18:05;5.23;;;3.60;;
10904;SDS011;5505;51.450;9.254;2024-02-15T07:20:52;4.37;;;2.33;;
10904;SDS011;5505;51.450;9.254;2024-02-15T07:23:39;4.03;;;2.60;;
10904;SDS011;5505;51.450;9.254;2024-02-15T07:26:26;2.90;;;2.30;;
10904;SDS011;5505;51.450;9.254;2024-02-15T07:29:14;2.73;;;2.07;;
10904;SDS011;5505;51.450;9.254;2024-02-15T07:32:01;4.77;;;2.60;;
10904;SDS011;5505;51.450;9.254;2024-02-15T07:34:49;3.13;;;2.70;;
10904;SDS011;5505;51.450;9.254;2024-02-15T07:37:36;5.53;;;3.03;;
10904;SDS011;5505;51.450;9.254;2024-02-15T07:40:25;4.03;;;2.73;;
10904;SDS011;5505;51.450;9.254;2024-02-15T07:43:14;4.50;;;2.73;;
10904;SDS011;5505;51.450;9.254;2024-02-15T07:46:02;4.67;;;3.00;;
10904;SDS011;5505;51.450;9.254;2024-02-15T07:48:49;4.20;;;2.90;;
10904;SDS011;5505;51.450;9.254;2024-02-15T07:51:36;3.53;;;2.70;;
10904;SDS011;5505;51.450;9.254;2024-02-15T07:54:23;5.77;;;3.40;;
10904;SDS011;5505;51.450;9.254;2024-02-15T07:57:10;3.50;;;2.70;;
10904;SDS011;5505;51.450;9.254;2024-02-15T07:59:57;5.13;;;3.80;;
10904;SDS011;5505;51.450;9.254;2024-02-15T08:02:45;4.63;;;3.10;;
10904;SDS011;5505;51.450;9.254;2024-02-15T08:05:32;4.30;;;3.77;;
10904;SDS011;5505;51.450;9.254;2024-02-15T08:08:20;4.17;;;3.43;;
10904;SDS011;5505;51.450;9.254;2024-02-15T08:11:07;4.27;;;3.80;;
10904;SDS011;5505;51.450;9.254;2024-02-15T08:13:59;5.10;;;3.60;;
10904;SDS011;5505;51.450;9.254;2024-02-15T08:16:46;4.87;;;3.87;;
10904;SDS011;5505;51.450;9.254;2024-02-15T08:19:34;3.53;;;3.23;;
10904;SDS011;5505;51.450;9.254;2024-02-15T08:22:22;5.33;;;3.53;;
10904;SDS011;5505;51.450;9.254;2024-02-15T08:25:09;6.27;;;4.10;;
10904;SDS011;5505;51.450;9.254;2024-02-15T08:27:57;5.77;;;3.47;;
10904;SDS011;5505;51.450;9.254;2024-02-15T08:30:43;6.97;;;4.27;;
10904;SDS011;5505;51.450;9.254;2024-02-15T08:33:31;4.00;;;3.40;;
10904;SDS011;5505;51.450;9.254;2024-02-15T08:36:20;4.93;;;3.53;;
10904;SDS011;5505;51.450;9.254;2024-02-15T08:39:07;4.80;;;3.40;;
10904;SDS011;5505;51.450;9.254;2024-02-15T08:41:56;4.50;;;3.17;;
10904;SDS011;5505;51.450;9.254;2024-02-15T08:44:43;4.60;;;3.60;;
10904;SDS011;5505;51.450;9.254;2024-02-15T08:47:30;6.23;;;3.53;;
10904;SDS011;5505;51.450;9.254;2024-02-15T08:50:17;4.63;;;3.50;;
10904;SDS011;5505;51.450;9.254;2024-02-15T08:53:06;3.70;;;3.40;;
10904;SDS011;5505;51.450;9.254;2024-02-15T08:55:53;3.47;;;2.97;;
10904;SDS011;5505;51.450;9.254;2024-02-15T08:58:40;3.80;;;3.37;;
10904;SDS011;5505;51.450;9.254;2024-02-15T09:01:27;5.97;;;3.30;;
10904;SDS011;5505;51.450;9.254;2024-02-15T09:04:15;4.70;;;3.60;;
10904;SDS011;5505;51.450;9.254;2024-02-15T09:07:01;3.80;;;3.40;;
10904;SDS011;5505;51.450;9.254;2024-02-15T09:09:50;3.53;;;3.07;;
10904;SDS011;5505;51.450;9.254;2024-02-15T09:12:37;5.03;;;3.70;;
10904;SDS011;5505;51.450;9.254;2024-02-15T09:15:25;4.40;;;3.60;;
10904;SDS011;5505;51.450;9.254;2024-02-15T09:18:12;4.07;;;3.30;;
10904;SDS011;5505;51.450;9.254;2024-02-15T09:20:58;4.93;;;3.30;;
10904;SDS011;5505;51.450;9.254;2024-02-15T09:23:45;5.13;;;3.60;;
10904;SDS011;5505;51.450;9.254;2024-02-15T09:26:35;3.83;;;3.30;;
10904;SDS011;5505;51.450;9.254;2024-02-15T09:29:22;5.13;;;3.00;;
10904;SDS011;5505;51.450;9.254;2024-02-15T09:32:09;6.00;;;3.37;;
10904;SDS011;5505;51.450;9.254;2024-02-15T09:34:56;4.13;;;2.80;;
10904;SDS011;5505;51.450;9.254;2024-02-15T09:37:43;5.00;;;3.37;;
10904;SDS011;5505;51.450;9.254;2024-02-15T09:40:33;5.03;;;3.23;;
10904;SDS011;5505;51.450;9.254;2024-02-15T09:43:22;5.33;;;2.90;;
10904;SDS011;5505;51.450;9.254;2024-02-15T09:46:12;5.20;;;2.93;;
10904;SDS011;5505;51.450;9.254;2024-02-15T09:48:59;3.93;;;2.90;;
10904;SDS011;5505;51.450;9.254;2024-02-15T09:51:48;3.30;;;2.83;;
10904;SDS011;5505;51.450;9.254;2024-02-15T09:54:35;3.30;;;2.53;;
10904;SDS011;5505;51.450;9.254;2024-02-15T09:57:24;5.97;;;2.80;;
10904;SDS011;5505;51.450;9.254;2024-02-15T10:00:14;4.60;;;2.83;;
10904;SDS011;5505;51.450;9.254;2024-02-15T10:03:02;2.87;;;2.50;;
10904;SDS011;5505;51.450;9.254;2024-02-15T10:05:52;3.50;;;2.70;;
10904;SDS011;5505;51.450;9.254;2024-02-15T10:08:39;4.90;;;2.67;;
10904;SDS011;5505;51.450;9.254;2024-02-15T10:11:26;3.90;;;2.60;;
10904;SDS011;5505;51.450;9.254;2024-02-15T10:14:13;3.03;;;2.10;;
10904;SDS011;5505;51.450;9.254;2024-02-15T10:17:06;4.30;;;2.40;;
10904;SDS011;5505;51.450;9.254;2024-02-15T10:20:02;3.73;;;2.40;;
10904;SDS011;5505;51.450;9.254;2024-02-15T10:22:50;6.17;;;2.87;;
10904;SDS011;5505;51.450;9.254;2024-02-15T10:25:37;4.90;;;2.70;;
10904;SDS011;5505;51.450;9.254;2024-02-15T10:28:25;4.43;;;2.50;;
10904;SDS011;5505;51.450;9.254;2024-02-15T10:31:14;4.50;;;2.87;;
10904;SDS011;5505;51.450;9.254;2024-02-15T10:34:05;3.20;;;2.37;;
10904;SDS011;5505;51.450;9.254;2024-02-15T10:36:53;5.23;;;2.70;;
10904;SDS011;5505;51.450;9.254;2024-02-15T10:39:41;4.00;;;2.70;;
10904;SDS011;5505;51.450;9.254;2024-02-15T10:42:28;5.63;;;3.40;;
10904;SDS011;5505;51.450;9.254;2024-02-15T10:45:15;4.53;;;2.93;;
10904;SDS011;5505;51.450;9.254;2024-02-15T10:48:05;3.80;;;2.90;;
10904;SDS011;5505;51.450;9.254;2024-02-15T10:50:55;5.33;;;3.13;;
10904;SDS011;5505;51.450;9.254;2024-02-15T10:53:47;4.33;;;2.97;;
10904;SDS011;5505;51.450;9.254;2024-02-15T10:56:42;4.43;;;3.10;;
10904;SDS011;5505;51.450;9.254;2024-02-15T10:59:31;3.80;;;3.20;;
10904;SDS011;5505;51.450;9.254;2024-02-15T11:02:28;6.00;;;2.97;;
10904;SDS011;5505;51.450;9.254;2024-02-15T11:05:16;8.67;;;3.60;;
10904;SDS011;5505;51.450;9.254;2024-02-15T11:08:09;4.90;;;3.63;;
10904;SDS011;5505;51.450;9.254;2024-02-15T11:10:57;5.53;;;3.50;;
10904;SDS011;5505;51.450;9.254;2024-02-15T11:13:49;5.30;;;3.53;;
10904;SDS011;5505;51.450;9.254;2024-02-15T11:16:58;5.57;;;3.57;;
10904;SDS011;5505;51.450;9.254;2024-02-15T11:19:47;5.73;;;3.80;;
10904;SDS011;5505;51.450;9.254;2024-02-15T11:22:34;4.50;;;3.47;;
10904;SDS011;5505;51.450;9.254;2024-02-15T11:25:24;5.30;;;3.30;;
10904;SDS011;5505;51.450;9.254;2024-02-15T11:28:36;7.40;;;3.50;;
10904;SDS011;5505;51.450;9.254;2024-02-15T11:34:44;5.67;;;3.43;;
10904;SDS011;5505;51.450;9.254;2024-02-15T11:37:53;5.30;;;3.30;;
10904;SDS011;5505;51.450;9.254;2024-02-15T11:41:00;5.40;;;3.43;;
10904;SDS011;5505;51.450;9.254;2024-02-15T11:43:51;6.00;;;3.73;;
10904;SDS011;5505;51.450;9.254;2024-02-15T11:46:43;6.50;;;3.87;;
10904;SDS011;5505;51.450;9.254;2024-02-15T11:49:30;5.43;;;4.00;;
10904;SDS011;5505;51.450;9.254;2024-02-15T11:52:17;5.93;;;4.63;;
10904;SDS011;5505;51.450;9.254;2024-02-15T11:55:07;9.47;;;4.17;;
10904;SDS011;5505;51.450;9.254;2024-02-15T11:57:59;7.13;;;4.00;;
10904;SDS011;5505;51.450;9.254;2024-02-15T12:00:50;4.83;;;3.60;;
10904;SDS011;5505;51.450;9.254;2024-02-15T12:04:05;5.93;;;3.40;;
10904;SDS011;5505;51.450;9.254;2024-02-15T12:07:13;7.10;;;3.70;;
10904;SDS011;5505;51.450;9.254;2024-02-15T12:10:26;5.70;;;3.60;;
10904;SDS011;5505;51.450;9.254;2024-02-15T12:13:31;6.63;;;3.50;;
10904;SDS011;5505;51.450;9.254;2024-02-15T12:16:36;6.83;;;4.10;;
10904;SDS011;5505;51.450;9.254;2024-02-15T12:19:40;5.30;;;3.70;;
10904;SDS011;5505;51.450;9.254;2024-02-15T12:22:30;6.03;;;3.93;;
10904;SDS011;5505;51.450;9.254;2024-02-15T12:25:19;8.00;;;3.63;;
10904;SDS011;5505;51.450;9.254;2024-02-15T12:28:07;4.30;;;3.40;;
10904;SDS011;5505;51.450;9.254;2024-02-15T12:30:55;5.47;;;3.80;;
10904;SDS011;5505;51.450;9.254;2024-02-15T12:33:43;7.67;;;3.80;;
10904;SDS011;5505;51.450;9.254;2024-02-15T12:36:31;4.23;;;2.93;;
10904;SDS011;5505;51.450;9.254;2024-02-15T12:39:23;4.67;;;3.37;;
10904;SDS011;5505;51.450;9.254;2024-02-15T12:42:13;4.87;;;3.50;;
10904;SDS011;5505;51.450;9.254;2024-02-15T12:44:59;6.70;;;4.47;;
10904;SDS011;5505;51.450;9.254;2024-02-15T12:47:51;5.53;;;3.30;;
10904;SDS011;5505;51.450;9.254;2024-02-15T12:50:38;7.07;;;4.00;;
10904;SDS011;5505;51.450;9.254;2024-02-15T12:53:25;5.30;;;3.47;;
10904;SDS011;5505;51.450;9.254;2024-02-15T12:56:19;5.30;;;3.10;;
10904;SDS011;5505;51.450;9.254;2024-02-15T12:59:06;3.00;;;2.70;;
10904;SDS011;5505;51.450;9.254;2024-02-15T13:01:53;5.40;;;3.47;;
10904;SDS011;5505;51.450;9.254;2024-02-15T13:04:42;4.37;;;3.27;;
10904;SDS011;5505;51.450;9.254;2024-02-15T13:07:28;7.03;;;3.83;;
10904;SDS011;5505;51.450;9.254;2024-02-15T13:10:16;5.63;;;3.20;;
10904;SDS011;5505;51.450;9.254;2024-02-15T13:13:03;4.60;;;2.93;;
10904;SDS011;5505;51.450;9.254;2024-02-15T13:15:50;7.63;;;3.33;;
10904;SDS011;5505;51.450;9.254;2024-02-15T13:18:37;7.10;;;3.10;;
10904;SDS011;5505;51.450;9.254;2024-02-15T13:21:26;5.13;;;2.77;;
10904;SDS011;5505;51.450;9.254;2024-02-15T13:24:15;3.30;;;3.00;;
10904;SDS011;5505;51.450;9.254;2024-02-15T13:27:02;4.10;;;2.87;;
10904;SDS011;5505;51.450;9.254;2024-02-15T13:29:49;4.07;;;2.73;;
10904;SDS011;5505;51.450;9.254;2024-02-15T13:32:36;4.20;;;2.83;;
10904;SDS011;5505;51.450;9.254;2024-02-15T13:35:23;4.57;;;3.00;;
10904;SDS011;5505;51.450;9.254;2024-02-15T13:38:12;4.87;;;2.97;;
10904;SDS011;5505;51.450;9.254;2024-02-15T13:41:07;4.80;;;3.47;;
10904;SDS011;5505;51.450;9.254;2024-02-15T13:43:54;5.87;;;3.10;;
10904;SDS011;5505;51.450;9.254;2024-02-15T13:46:41;3.37;;;3.07;;
10904;SDS011;5505;51.450;9.254;2024-02-15T13:49:29;4.87;;;3.30;;
10904;SDS011;5505;51.450;9.254;2024-02-15T13:52:16;3.77;;;2.93;;
10904;SDS011;5505;51.450;9.254;2024-02-15T13:55:05;4.23;;;3.40;;
10904;SDS011;5505;51.450;9.254;2024-02-15T13:57:53;3.83;;;3.00;;
10904;SDS011;5505;51.450;9.254;2024-02-15T14:00:41;3.13;;;2.90;;
10904;SDS011;5505;51.450;9.254;2024-02-15T14:03:29;4.23;;;3.10;;
10904;SDS011;5505;51.450;9.254;2024-02-15T14:06:17;4.60;;;2.87;;
10904;SDS011;5505;51.450;9.254;2024-02-15T14:09:04;4.17;;;2.90;;
10904;SDS011;5505;51.450;9.254;2024-02-15T14:11:52;4.97;;;3.07;;
10904;SDS011;5505;51.450;9.254;2024-02-15T14:14:39;4.77;;;2.90;;
10904;SDS011;5505;51.450;9.254;2024-02-15T14:17:28;5.23;;;3.00;;
10904;SDS011;5505;51.450;9.254;2024-02-15T14:20:14;4.73;;;3.10;;
10904;SDS011;5505;51.450;9.254;2024-02-15T14:23:01;5.13;;;2.93;;
10904;SDS011;5505;51.450;9.254;2024-02-15T14:25:50;4.73;;;3.00;;
10904;SDS011;5505;51.450;9.254;2024-02-15T14:28:39;3.47;;;2.67;;
10904;SDS011;5505;51.450;9.254;2024-02-15T14:31:27;4.17;;;2.70;;
10904;SDS011;5505;51.450;9.254;2024-02-15T14:34:31;6.67;;;3.37;;
10904;SDS011;5505;51.450;9.254;2024-02-15T14:37:21;7.57;;;5.47;;
10904;SDS011;5505;51.450;9.254;2024-02-15T14:40:09;5.13;;;3.30;;
10904;SDS011;5505;51.450;9.254;2024-02-15T14:42:59;4.03;;;3.00;;
10904;SDS011;5505;51.450;9.254;2024-02-15T14:45:47;4.60;;;2.77;;
10904;SDS011;5505;51.450;9.254;2024-02-15T14:48:34;6.33;;;3.30;;
10904;SDS011;5505;51.450;9.254;2024-02-15T14:51:21;6.77;;;3.80;;
10904;SDS011;5505;51.450;9.254;2024-02-15T14:54:09;5.30;;;2.83;;
10904;SDS011;5505;51.450;9.254;2024-02-15T14:56:56;6.20;;;3.37;;
10904;SDS011;5505;51.450;9.254;2024-02-15T14:59:42;3.87;;;2.30;;
10904;SDS011;5505;51.450;9.254;2024-02-15T15:02:31;5.60;;;2.77;;
10904;SDS011;5505;51.450;9.254;2024-02-15T15:05:17;3.47;;;2.13;;
10904;SDS011;5505;51.450;9.254;2024-02-15T15:08:22;3.20;;;2.20;;
10904;SDS011;5505;51.450;9.254;2024-02-15T15:11:26;3.00;;;2.40;;
10904;SDS011;5505;51.450;9.254;2024-02-15T15:14:30;4.37;;;2.30;;
10904;SDS011;5505;51.450;9.254;2024-02-15T15:17:17;4.87;;;2.53;;
10904;SDS011;5505;51.450;9.254;2024-02-15T15:20:08;4.30;;;2.00;;
10904;SDS011;5505;51.450;9.254;2024-02-15T15:22:55;4.83;;;3.17;;
10904;SDS011;5505;51.450;9.254;2024-02-15T15:25:42;4.03;;;2.17;;
10904;SDS011;5505;51.450;9.254;2024-02-15T15:28:29;5.30;;;2.10;;
10904;SDS011;5505;51.450;9.254;2024-02-15T15:31:16;3.87;;;2.70;;
10904;SDS011;5505;51.450;9.254;2024-02-15T15:34:04;3.80;;;2.37;;
10904;SDS011;5505;51.450;9.254;2024-02-15T15:36:53;4.73;;;2.00;;
10904;SDS011;5505;51.450;9.254;2024-02-15T15:39:42;4.50;;;2.03;;
10904;SDS011;5505;51.450;9.254;2024-02-15T15:42:29;4.20;;;2.03;;
10904;SDS011;5505;51.450;9.254;2024-02-15T15:45:15;4.60;;;2.50;;
10904;SDS011;5505;51.450;9.254;2024-02-15T15:48:03;3.40;;;2.30;;
10904;SDS011;5505;51.450;9.254;2024-02-15T15:50:51;3.43;;;2.30;;
10904;SDS011;5505;51.450;9.254;2024-02-15T15:53:40;5.00;;;2.60;;
10904;SDS011;5505;51.450;9.254;2024-02-15T15:56:27;6.60;;;2.97;;
10904;SDS011;5505;51.450;9.254;2024-02-15T15:59:14;8.57;;;3.40;;
10904;SDS011;5505;51.450;9.254;2024-02-15T16:02:00;3.70;;;2.00;;
10904;SDS011;5505;51.450;9.254;2024-02-15T16:04:49;7.17;;;3.20;;
10904;SDS011;5505;51.450;9.254;2024-02-15T16:07:41;3.90;;;2.00;;
10904;SDS011;5505;51.450;9.254;2024-02-15T16:10:29;5.20;;;1.93;;
10904;SDS011;5505;51.450;9.254;2024-02-15T16:13:17;4.70;;;2.00;;
10904;SDS011;5505;51.450;9.254;2024-02-15T16:16:06;6.23;;;2.47;;
10904;SDS011;5505;51.450;9.254;2024-02-15T16:18:53;2.63;;;1.87;;
10904;SDS011;5505;51.450;9.254;2024-02-15T16:21:42;3.57;;;2.00;;
10904;SDS011;5505;51.450;9.254;2024-02-15T16:24:29;5.50;;;1.80;;
10904;SDS011;5505;51.450;9.254;2024-02-15T16:27:18;3.07;;;1.63;;
10904;SDS011;5505;51.450;9.254;2024-02-15T16:30:05;2.80;;;1.87;;
10904;SDS011;5505;51.450;9.254;2024-02-15T16:32:54;4.60;;;1.80;;
10904;SDS011;5505;51.450;9.254;2024-02-15T16:35:41;5.27;;;2.13;;
10904;SDS011;5505;51.450;9.254;2024-02-15T16:38:27;4.40;;;1.90;;
10904;SDS011;5505;51.450;9.254;2024-02-15T16:41:14;4.00;;;1.63;;
10904;SDS011;5505;51.450;9.254;2024-02-15T16:44:03;4.83;;;1.83;;
10904;SDS011;5505;51.450;9.254;2024-02-15T16:46:51;3.63;;;1.67;;
10904;SDS011;5505;51.450;9.254;2024-02-15T16:49:38;6.73;;;2.03;;
10904;SDS011;5505;51.450;9.254;2024-02-15T16:52:25;3.57;;;1.77;;
10904;SDS011;5505;51.450;9.254;2024-02-15T16:55:12;4.43;;;1.50;;
10904;SDS011;5505;51.450;9.254;2024-02-15T16:57:59;5.00;;;1.63;;
10904;SDS011;5505;51.450;9.254;2024-02-15T17:00:48;4.10;;;1.40;;
10904;SDS011;5505;51.450;9.254;2024-02-15T17:03:35;3.77;;;1.50;;
10904;SDS011;5505;51.450;9.254;2024-02-15T17:06:22;2.83;;;1.70;;
10904;SDS011;5505;51.450;9.254;2024-02-15T17:09:09;3.47;;;1.53;;
10904;SDS011;5505;51.450;9.254;2024-02-15T17:11:56;3.60;;;1.87;;
10904;SDS011;5505;51.450;9.254;2024-02-15T17:14:43;4.37;;;1.30;;